Saint Benedict, Louisiana
Current Conditions -  °F | °C
As of 8:55 PM on Sunday 23 Nov 2014 (Local Time) from KHDC Reporting Station
Broken Clouds Broken Clouds  
Wind Chill: 20°   Ceiling: 1600
Heat Index: 20°   Visibility: 10mi
Dew Point: 17°   Wind: 8mph
Humidity: 83%   Direction: 200°SSW
Pressure: 29.72"   Gusts: NA
Location:  30.53°N, 90.11°W
Report Text: KHDC 240255Z AUTO 20007KT 10SM BKN016 BKN023 20/17 A2972 RMK AO2
Loading
Personal Weather Stations






























Interactive Weather Map New forecast layout! Learn more

10-Day Weather Forecast

Advertisements
Track Severe Weather on mobile